sensor_id;sensor_type;location;lat;lon;timestamp;pressure;altitude;pressure_sealevel;temperature;humidity
60918;BME280;46792;38.854;-9.384;2022-12-05T00:00:14;98361.00;;;12.57;100.00
60918;BME280;46792;38.854;-9.384;2022-12-05T00:02:15;98353.13;;;12.46;100.00
60918;BME280;46792;38.854;-9.384;2022-12-05T00:04:16;98349.13;;;12.44;100.00
60918;BME280;46792;38.854;-9.384;2022-12-05T00:06:17;98351.22;;;12.47;100.00
60918;BME280;46792;38.854;-9.384;2022-12-05T00:08:18;98345.88;;;12.56;100.00
60918;BME280;46792;38.854;-9.384;2022-12-05T00:10:18;98344.13;;;12.60;100.00
60918;BME280;46792;38.854;-9.384;2022-12-05T00:12:19;98332.94;;;12.53;100.00
60918;BME280;46792;38.854;-9.384;2022-12-05T00:14:19;98326.53;;;12.48;100.00
60918;BME280;46792;38.854;-9.384;2022-12-05T00:16:22;98329.13;;;12.54;100.00
60918;BME280;46792;38.854;-9.384;2022-12-05T00:18:42;98323.34;;;12.46;100.00
60918;BME280;46792;38.854;-9.384;2022-12-05T00:20:44;98336.09;;;12.46;100.00
60918;BME280;46792;38.854;-9.384;2022-12-05T00:22:45;98329.25;;;12.48;100.00
60918;BME280;46792;38.854;-9.384;2022-12-05T00:24:46;98332.34;;;12.56;100.00
60918;BME280;46792;38.854;-9.384;2022-12-05T00:26:46;98329.75;;;12.51;100.00
60918;BME280;46792;38.854;-9.384;2022-12-05T00:29:05;98325.94;;;12.52;100.00
60918;BME280;46792;38.854;-9.384;2022-12-05T00:31:27;98324.94;;;12.47;100.00
60918;BME280;46792;38.854;-9.384;2022-12-05T00:33:28;98321.13;;;12.48;100.00
60918;BME280;46792;38.854;-9.384;2022-12-05T00:35:29;98324.69;;;12.35;100.00
60918;BME280;46792;38.854;-9.384;2022-12-05T00:37:29;98329.00;;;12.36;100.00
60918;BME280;46792;38.854;-9.384;2022-12-05T00:39:30;98330.16;;;12.44;100.00
60918;BME280;46792;38.854;-9.384;2022-12-05T00:41:32;98326.66;;;12.43;100.00
60918;BME280;46792;38.854;-9.384;2022-12-05T00:43:32;98330.59;;;12.37;100.00
60918;BME280;46792;38.854;-9.384;2022-12-05T00:45:33;98328.19;;;12.36;100.00
60918;BME280;46792;38.854;-9.384;2022-12-05T00:47:37;98320.97;;;12.31;100.00
60918;BME280;46792;38.854;-9.384;2022-12-05T00:49:38;98310.66;;;12.33;100.00
60918;BME280;46792;38.854;-9.384;2022-12-05T00:51:41;98311.47;;;12.34;100.00
60918;BME280;46792;38.854;-9.384;2022-12-05T00:53:42;98310.75;;;12.28;100.00
60918;BME280;46792;38.854;-9.384;2022-12-05T00:55:43;98315.38;;;12.27;100.00
60918;BME280;46792;38.854;-9.384;2022-12-05T00:57:43;98307.03;;;12.38;100.00
60918;BME280;46792;38.854;-9.384;2022-12-05T00:59:44;98304.97;;;12.35;100.00
60918;BME280;46792;38.854;-9.384;2022-12-05T01:01:46;98294.91;;;12.35;100.00
60918;BME280;46792;38.854;-9.384;2022-12-05T01:03:48;98304.16;;;12.34;100.00
60918;BME280;46792;38.854;-9.384;2022-12-05T01:05:50;98307.41;;;12.45;100.00
60918;BME280;46792;38.854;-9.384;2022-12-05T01:07:50;98309.31;;;12.44;100.00
60918;BME280;46792;38.854;-9.384;2022-12-05T01:09:51;98315.53;;;12.45;100.00
60918;BME280;46792;38.854;-9.384;2022-12-05T01:11:52;98323.84;;;12.48;100.00
60918;BME280;46792;38.854;-9.384;2022-12-05T01:13:53;98323.72;;;12.54;100.00
60918;BME280;46792;38.854;-9.384;2022-12-05T01:16:22;98323.72;;;12.54;100.00
60918;BME280;46792;38.854;-9.384;2022-12-05T01:18:44;98323.03;;;12.48;100.00
60918;BME280;46792;38.854;-9.384;2022-12-05T01:20:45;98322.97;;;12.39;100.00
60918;BME280;46792;38.854;-9.384;2022-12-05T01:22:46;98327.41;;;12.35;100.00
60918;BME280;46792;38.854;-9.384;2022-12-05T01:24:46;98325.13;;;12.28;100.00
60918;BME280;46792;38.854;-9.384;2022-12-05T01:26:47;98323.19;;;12.29;100.00
60918;BME280;46792;38.854;-9.384;2022-12-05T01:28:49;98321.91;;;12.26;100.00
60918;BME280;46792;38.854;-9.384;2022-12-05T01:30:50;98328.13;;;12.27;100.00
60918;BME280;46792;38.854;-9.384;2022-12-05T01:32:50;98317.91;;;12.24;100.00
60918;BME280;46792;38.854;-9.384;2022-12-05T01:34:51;98319.81;;;12.23;100.00
60918;BME280;46792;38.854;-9.384;2022-12-05T01:36:52;98330.84;;;12.27;100.00
60918;BME280;46792;38.854;-9.384;2022-12-05T01:38:52;98323.00;;;12.25;100.00
60918;BME280;46792;38.854;-9.384;2022-12-05T01:41:01;98333.66;;;12.22;100.00
60918;BME280;46792;38.854;-9.384;2022-12-05T01:43:03;98328.91;;;12.27;100.00
60918;BME280;46792;38.854;-9.384;2022-12-05T01:45:15;98336.19;;;12.41;100.00
60918;BME280;46792;38.854;-9.384;2022-12-05T01:47:17;98336.72;;;12.29;100.00
60918;BME280;46792;38.854;-9.384;2022-12-05T01:49:31;98339.44;;;12.29;100.00
60918;BME280;46792;38.854;-9.384;2022-12-05T01:51:54;98329.41;;;12.29;100.00
60918;BME280;46792;38.854;-9.384;2022-12-05T01:53:57;98333.41;;;12.32;100.00
60918;BME280;46792;38.854;-9.384;2022-12-05T01:55:58;98327.22;;;12.31;100.00
60918;BME280;46792;38.854;-9.384;2022-12-05T01:57:59;98314.19;;;12.34;100.00
60918;BME280;46792;38.854;-9.384;2022-12-05T02:00:08;98331.69;;;12.36;100.00
60918;BME280;46792;38.854;-9.384;2022-12-05T02:02:18;98328.25;;;12.44;100.00
60918;BME280;46792;38.854;-9.384;2022-12-05T02:04:19;98324.44;;;12.45;100.00
60918;BME280;46792;38.854;-9.384;2022-12-05T02:06:24;98322.28;;;12.34;100.00
60918;BME280;46792;38.854;-9.384;2022-12-05T02:08:37;98332.66;;;12.17;100.00
60918;BME280;46792;38.854;-9.384;2022-12-05T02:10:44;98330.53;;;12.28;100.00
60918;BME280;46792;38.854;-9.384;2022-12-05T02:12:46;98325.06;;;12.42;100.00
60918;BME280;46792;38.854;-9.384;2022-12-05T02:17:09;98334.72;;;12.35;100.00
60918;BME280;46792;38.854;-9.384;2022-12-05T02:24:07;98330.13;;;12.21;100.00
60918;BME280;46792;38.854;-9.384;2022-12-05T02:29:04;98330.13;;;12.21;100.00
60918;BME280;46792;38.854;-9.384;2022-12-05T02:38:23;98321.13;;;12.48;100.00
60918;BME280;46792;38.854;-9.384;2022-12-05T02:40:32;98314.03;;;12.39;100.00
60918;BME280;46792;38.854;-9.384;2022-12-05T02:45:15;98319.59;;;12.34;100.00
60918;BME280;46792;38.854;-9.384;2022-12-05T02:47:21;98310.16;;;12.31;100.00
60918;BME280;46792;38.854;-9.384;2022-12-05T02:49:26;98314.59;;;12.27;100.00
60918;BME280;46792;38.854;-9.384;2022-12-05T02:51:33;98318.03;;;12.19;100.00
60918;BME280;46792;38.854;-9.384;2022-12-05T02:53:36;98311.09;;;12.26;100.00
60918;BME280;46792;38.854;-9.384;2022-12-05T02:55:41;98320.63;;;12.24;100.00
60918;BME280;46792;38.854;-9.384;2022-12-05T02:57:48;98322.31;;;12.20;100.00
60918;BME280;46792;38.854;-9.384;2022-12-05T03:00:08;98324.25;;;12.19;100.00
60918;BME280;46792;38.854;-9.384;2022-12-05T03:02:28;98312.44;;;12.15;100.00
60918;BME280;46792;38.854;-9.384;2022-12-05T03:04:31;98315.63;;;12.17;100.00
60918;BME280;46792;38.854;-9.384;2022-12-05T03:06:47;98322.31;;;12.20;100.00
60918;BME280;46792;38.854;-9.384;2022-12-05T03:08:54;98323.53;;;12.13;100.00
60918;BME280;46792;38.854;-9.384;2022-12-05T03:10:57;98320.34;;;12.11;100.00
60918;BME280;46792;38.854;-9.384;2022-12-05T03:13:25;98320.22;;;12.16;100.00
60918;BME280;46792;38.854;-9.384;2022-12-05T03:15:48;98319.22;;;12.12;100.00
60918;BME280;46792;38.854;-9.384;2022-12-05T03:17:56;98330.53;;;12.14;100.00
60918;BME280;46792;38.854;-9.384;2022-12-05T03:22:18;98327.25;;;12.17;100.00
60918;BME280;46792;38.854;-9.384;2022-12-05T03:24:20;98322.16;;;12.16;100.00
60918;BME280;46792;38.854;-9.384;2022-12-05T03:26:37;98333.25;;;12.14;100.00
60918;BME280;46792;38.854;-9.384;2022-12-05T03:28:55;98328.66;;;12.15;100.00
60918;BME280;46792;38.854;-9.384;2022-12-05T03:31:07;98332.47;;;12.14;100.00
60918;BME280;46792;38.854;-9.384;2022-12-05T03:33:22;98323.25;;;12.15;100.00
60918;BME280;46792;38.854;-9.384;2022-12-05T03:35:29;98322.44;;;12.14;100.00
60918;BME280;46792;38.854;-9.384;2022-12-05T03:37:53;98310.81;;;12.14;100.00
60918;BME280;46792;38.854;-9.384;2022-12-05T03:40:05;98314.13;;;12.11;100.00
60918;BME280;46792;38.854;-9.384;2022-12-05T03:42:11;98310.00;;;12.13;100.00
60918;BME280;46792;38.854;-9.384;2022-12-05T03:44:17;98301.09;;;12.13;100.00
60918;BME280;46792;38.854;-9.384;2022-12-05T03:46:23;98295.69;;;12.13;100.00
60918;BME280;46792;38.854;-9.384;2022-12-05T03:48:30;98294.28;;;12.15;100.00
60918;BME280;46792;38.854;-9.384;2022-12-05T03:50:36;98287.41;;;12.09;100.00
60918;BME280;46792;38.854;-9.384;2022-12-05T03:52:43;98286.59;;;12.09;100.00
60918;BME280;46792;38.854;-9.384;2022-12-05T03:54:52;98282.78;;;12.10;100.00
60918;BME280;46792;38.854;-9.384;2022-12-05T03:59:34;98281.28;;;12.04;100.00
60918;BME280;46792;38.854;-9.384;2022-12-05T04:01:38;98282.28;;;12.08;100.00
60918;BME280;46792;38.854;-9.384;2022-12-05T04:03:43;98279.06;;;12.06;100.00
60918;BME280;46792;38.854;-9.384;2022-12-05T04:05:50;98269.34;;;12.05;100.00
60918;BME280;46792;38.854;-9.384;2022-12-05T04:07:59;98261.44;;;12.08;100.00
60918;BME280;46792;38.854;-9.384;2022-12-05T04:10:08;98267.34;;;12.10;100.00
60918;BME280;46792;38.854;-9.384;2022-12-05T04:12:18;98265.75;;;12.09;100.00
60918;BME280;46792;38.854;-9.384;2022-12-05T04:14:46;98267.97;;;12.07;100.00
60918;BME280;46792;38.854;-9.384;2022-12-05T04:16:53;98267.97;;;12.07;100.00
60918;BME280;46792;38.854;-9.384;2022-12-05T04:19:11;98262.84;;;12.06;100.00
60918;BME280;46792;38.854;-9.384;2022-12-05T04:21:14;98257.00;;;12.12;100.00
60918;BME280;46792;38.854;-9.384;2022-12-05T04:23:35;98253.53;;;12.12;100.00
60918;BME280;46792;38.854;-9.384;2022-12-05T04:30:12;98244.28;;;12.13;100.00
60918;BME280;46792;38.854;-9.384;2022-12-05T04:32:14;98250.38;;;12.19;100.00
60918;BME280;46792;38.854;-9.384;2022-12-05T04:34:19;98250.69;;;12.17;100.00
60918;BME280;46792;38.854;-9.384;2022-12-05T04:36:28;98236.78;;;12.10;100.00
60918;BME280;46792;38.854;-9.384;2022-12-05T04:38:50;98253.19;;;12.13;100.00
60918;BME280;46792;38.854;-9.384;2022-12-05T04:40:58;98257.16;;;12.07;100.00
60918;BME280;46792;38.854;-9.384;2022-12-05T04:43:01;98246.19;;;12.12;100.00
60918;BME280;46792;38.854;-9.384;2022-12-05T04:45:07;98257.66;;;12.09;100.00
60918;BME280;46792;38.854;-9.384;2022-12-05T04:47:11;98247.59;;;12.10;100.00
60918;BME280;46792;38.854;-9.384;2022-12-05T04:49:18;98249.53;;;12.09;100.00
60918;BME280;46792;38.854;-9.384;2022-12-05T04:51:39;98249.31;;;12.06;100.00
60918;BME280;46792;38.854;-9.384;2022-12-05T04:53:42;98245.34;;;12.03;100.00
60918;BME280;46792;38.854;-9.384;2022-12-05T04:55:47;98244.22;;;12.04;100.00
60918;BME280;46792;38.854;-9.384;2022-12-05T05:00:07;98246.94;;;12.04;100.00
60918;BME280;46792;38.854;-9.384;2022-12-05T05:02:09;98245.81;;;12.05;100.00
60918;BME280;46792;38.854;-9.384;2022-12-05T05:04:16;98247.53;;;12.01;100.00
60918;BME280;46792;38.854;-9.384;2022-12-05T05:06:19;98247.72;;;12.05;100.00
60918;BME280;46792;38.854;-9.384;2022-12-05T05:08:23;98251.75;;;12.07;100.00
60918;BME280;46792;38.854;-9.384;2022-12-05T05:10:32;98251.31;;;12.14;100.00
60918;BME280;46792;38.854;-9.384;2022-12-05T05:12:35;98255.41;;;12.11;100.00
60918;BME280;46792;38.854;-9.384;2022-12-05T05:14:54;98242.19;;;12.10;100.00
60918;BME280;46792;38.854;-9.384;2022-12-05T05:16:55;98249.72;;;12.13;100.00
60918;BME280;46792;38.854;-9.384;2022-12-05T05:18:56;98248.28;;;12.15;100.00
60918;BME280;46792;38.854;-9.384;2022-12-05T05:20:57;98242.59;;;12.17;100.00
60918;BME280;46792;38.854;-9.384;2022-12-05T05:25:55;98246.56;;;12.20;100.00
60918;BME280;46792;38.854;-9.384;2022-12-05T05:27:56;98249.59;;;12.18;100.00
60918;BME280;46792;38.854;-9.384;2022-12-05T05:29:56;98249.28;;;12.20;100.00
60918;BME280;46792;38.854;-9.384;2022-12-05T05:34:35;98235.06;;;12.14;100.00
60918;BME280;46792;38.854;-9.384;2022-12-05T05:36:37;98235.38;;;12.12;100.00
60918;BME280;46792;38.854;-9.384;2022-12-05T05:38:40;98239.38;;;12.15;100.00
60918;BME280;46792;38.854;-9.384;2022-12-05T05:40:41;98245.28;;;12.17;100.00
60918;BME280;46792;38.854;-9.384;2022-12-05T05:42:43;98245.09;;;12.13;100.00
60918;BME280;46792;38.854;-9.384;2022-12-05T05:44:44;98231.06;;;12.11;100.00
60918;BME280;46792;38.854;-9.384;2022-12-05T05:46:44;98245.78;;;12.19;100.00
60918;BME280;46792;38.854;-9.384;2022-12-05T05:48:46;98244.47;;;12.16;100.00
60918;BME280;46792;38.854;-9.384;2022-12-05T05:50:46;98245.47;;;12.21;100.00
60918;BME280;46792;38.854;-9.384;2022-12-05T05:52:47;98249.28;;;12.20;100.00
60918;BME280;46792;38.854;-9.384;2022-12-05T05:55:07;98247.06;;;12.22;100.00
60918;BME280;46792;38.854;-9.384;2022-12-05T05:57:27;98241.16;;;12.20;100.00
60918;BME280;46792;38.854;-9.384;2022-12-05T05:59:27;98241.06;;;12.25;100.00
60918;BME280;46792;38.854;-9.384;2022-12-05T06:01:29;98231.34;;;12.24;100.00
60918;BME280;46792;38.854;-9.384;2022-12-05T06:03:29;98229.25;;;12.21;100.00
60918;BME280;46792;38.854;-9.384;2022-12-05T06:05:30;98233.44;;;12.27;100.00
60918;BME280;46792;38.854;-9.384;2022-12-05T06:07:31;98231.00;;;12.25;100.00
60918;BME280;46792;38.854;-9.384;2022-12-05T06:09:32;98228.03;;;12.27;100.00
60918;BME280;46792;38.854;-9.384;2022-12-05T06:11:32;98223.72;;;12.26;100.00
60918;BME280;46792;38.854;-9.384;2022-12-05T06:13:33;98222.59;;;12.27;100.00
60918;BME280;46792;38.854;-9.384;2022-12-05T06:15:33;98221.78;;;12.26;100.00
60918;BME280;46792;38.854;-9.384;2022-12-05T06:17:34;98222.59;;;12.27;100.00
60918;BME280;46792;38.854;-9.384;2022-12-05T06:19:35;98220.91;;;12.40;100.00
60918;BME280;46792;38.854;-9.384;2022-12-05T06:21:35;98219.66;;;12.37;100.00
60918;BME280;46792;38.854;-9.384;2022-12-05T06:23:37;98210.41;;;12.38;100.00
60918;BME280;46792;38.854;-9.384;2022-12-05T06:25:38;98206.72;;;12.34;100.00
60918;BME280;46792;38.854;-9.384;2022-12-05T06:27:38;98204.69;;;12.40;100.00
60918;BME280;46792;38.854;-9.384;2022-12-05T06:29:39;98202.66;;;12.45;100.00
60918;BME280;46792;38.854;-9.384;2022-12-05T06:31:40;98201.50;;;12.38;100.00
60918;BME280;46792;38.854;-9.384;2022-12-05T06:33:41;98203.75;;;12.44;100.00
60918;BME280;46792;38.854;-9.384;2022-12-05T06:35:42;98206.78;;;12.43;100.00
60918;BME280;46792;38.854;-9.384;2022-12-05T06:37:44;98213.69;;;12.49;100.00
60918;BME280;46792;38.854;-9.384;2022-12-05T06:39:45;98210.66;;;12.51;100.00
60918;BME280;46792;38.854;-9.384;2022-12-05T06:41:45;98216.66;;;12.47;100.00
60918;BME280;46792;38.854;-9.384;2022-12-05T06:43:46;98224.00;;;12.47;100.00
60918;BME280;46792;38.854;-9.384;2022-12-05T06:45:47;98218.09;;;12.45;100.00
60918;BME280;46792;38.854;-9.384;2022-12-05T06:47:47;98226.72;;;12.47;100.00
60918;BME280;46792;38.854;-9.384;2022-12-05T06:49:49;98228.13;;;12.44;100.00
60918;BME280;46792;38.854;-9.384;2022-12-05T06:51:50;98228.13;;;12.44;100.00
60918;BME280;46792;38.854;-9.384;2022-12-05T06:54:03;98232.75;;;12.44;100.00
60918;BME280;46792;38.854;-9.384;2022-12-05T06:56:11;98231.13;;;12.43;100.00
60918;BME280;46792;38.854;-9.384;2022-12-05T06:58:13;98221.59;;;12.45;100.00
60918;BME280;46792;38.854;-9.384;2022-12-05T07:00:14;98235.63;;;12.47;100.00
60918;BME280;46792;38.854;-9.384;2022-12-05T07:02:33;98243.13;;;12.51;100.00
60918;BME280;46792;38.854;-9.384;2022-12-05T07:04:33;98235.06;;;12.59;100.00
60918;BME280;46792;38.854;-9.384;2022-12-05T07:06:34;98244.13;;;12.55;100.00
60918;BME280;46792;38.854;-9.384;2022-12-05T07:08:35;98246.81;;;12.55;100.00
60918;BME280;46792;38.854;-9.384;2022-12-05T07:13:14;98249.81;;;12.53;100.00
60918;BME280;46792;38.854;-9.384;2022-12-05T07:15:14;98256.22;;;12.57;100.00
60918;BME280;46792;38.854;-9.384;2022-12-05T07:17:19;98252.91;;;12.60;100.00
60918;BME280;46792;38.854;-9.384;2022-12-05T07:19:19;98248.28;;;12.61;100.00
60918;BME280;46792;38.854;-9.384;2022-12-05T07:21:20;98235.38;;;12.58;100.00
60918;BME280;46792;38.854;-9.384;2022-12-05T07:23:21;98237.78;;;12.59;100.00
60918;BME280;46792;38.854;-9.384;2022-12-05T07:25:58;98239.38;;;12.60;100.00
60918;BME280;46792;38.854;-9.384;2022-12-05T07:28:17;98239.72;;;12.68;100.00
60918;BME280;46792;38.854;-9.384;2022-12-05T07:30:18;98244.47;;;12.62;100.00
60918;BME280;46792;38.854;-9.384;2022-12-05T07:32:19;98245.09;;;12.59;100.00
60918;BME280;46792;38.854;-9.384;2022-12-05T07:34:19;98244.78;;;12.60;100.00
60918;BME280;46792;38.854;-9.384;2022-12-05T07:39:19;98234.63;;;12.66;100.00
60918;BME280;46792;38.854;-9.384;2022-12-05T07:41:25;98232.53;;;12.63;100.00
60918;BME280;46792;38.854;-9.384;2022-12-05T07:44:04;98240.81;;;12.58;100.00
60918;BME280;46792;38.854;-9.384;2022-12-05T10:21:31;98295.94;;;12.93;100.00
60918;BME280;46792;38.854;-9.384;2022-12-05T10:23:54;98292.63;;;12.97;100.00
60918;BME280;46792;38.854;-9.384;2022-12-05T10:25:58;98291.19;;;12.99;100.00
60918;BME280;46792;38.854;-9.384;2022-12-05T10:28:03;98295.66;;;13.04;100.00
60918;BME280;46792;38.854;-9.384;2022-12-05T10:30:15;98287.09;;;13.11;100.00
60918;BME280;46792;38.854;-9.384;2022-12-05T10:32:31;98299.69;;;13.06;100.00
60918;BME280;46792;38.854;-9.384;2022-12-05T10:34:40;98301.47;;;13.11;100.00
60918;BME280;46792;38.854;-9.384;2022-12-05T10:37:01;98296.09;;;13.20;100.00
60918;BME280;46792;38.854;-9.384;2022-12-05T10:39:08;98305.81;;;13.21;100.00
60918;BME280;46792;38.854;-9.384;2022-12-05T10:41:11;98307.09;;;13.23;100.00
60918;BME280;46792;38.854;-9.384;2022-12-05T10:43:16;98302.78;;;13.22;100.00
60918;BME280;46792;38.854;-9.384;2022-12-05T10:45:22;98311.41;;;13.24;100.00
60918;BME280;46792;38.854;-9.384;2022-12-05T10:47:23;98309.47;;;13.25;100.00
60918;BME280;46792;38.854;-9.384;2022-12-05T10:49:24;98312.84;;;13.22;100.00
60918;BME280;46792;38.854;-9.384;2022-12-05T10:51:28;98306.31;;;13.23;100.00
60918;BME280;46792;38.854;-9.384;2022-12-05T10:53:46;98308.38;;;13.26;100.00
60918;BME280;46792;38.854;-9.384;2022-12-05T10:55:52;98304.41;;;13.32;100.00
60918;BME280;46792;38.854;-9.384;2022-12-05T10:58:11;98299.97;;;13.36;100.00
60918;BME280;46792;38.854;-9.384;2022-12-05T11:00:14;98299.22;;;13.45;100.00
60918;BME280;46792;38.854;-9.384;2022-12-05T11:02:24;98306.69;;;13.39;100.00
60918;BME280;46792;38.854;-9.384;2022-12-05T11:04:42;98303.66;;;13.41;100.00
60918;BME280;46792;38.854;-9.384;2022-12-05T11:07:01;98300.97;;;13.41;100.00
60918;BME280;46792;38.854;-9.384;2022-12-05T11:09:17;98300.81;;;13.46;100.00
60918;BME280;46792;38.854;-9.384;2022-12-05T11:11:25;98306.13;;;13.51;100.00
60918;BME280;46792;38.854;-9.384;2022-12-05T11:13:28;98310.56;;;13.47;100.00
60918;BME280;46792;38.854;-9.384;2022-12-05T11:15:30;98302.28;;;13.52;100.00
60918;BME280;46792;38.854;-9.384;2022-12-05T11:17:36;98303.25;;;13.56;100.00
60918;BME280;46792;38.854;-9.384;2022-12-05T11:19:37;98302.81;;;13.63;100.00
60918;BME280;46792;38.854;-9.384;2022-12-05T11:21:42;98294.50;;;13.68;100.00
60918;BME280;46792;38.854;-9.384;2022-12-05T11:23:42;98294.22;;;13.69;100.00
60918;BME280;46792;38.854;-9.384;2022-12-05T11:25:43;98294.69;;;13.72;100.00
60918;BME280;46792;38.854;-9.384;2022-12-05T11:27:44;98298.69;;;13.83;100.00
60918;BME280;46792;38.854;-9.384;2022-12-05T11:30:03;98299.19;;;13.85;100.00
60918;BME280;46792;38.854;-9.384;2022-12-05T11:32:16;98287.88;;;13.92;100.00
60918;BME280;46792;38.854;-9.384;2022-12-05T11:34:30;98300.47;;;13.96;100.00
60918;BME280;46792;38.854;-9.384;2022-12-05T11:36:39;98288.66;;;13.92;100.00
60918;BME280;46792;38.854;-9.384;2022-12-05T11:38:40;98289.28;;;13.89;100.00
60918;BME280;46792;38.854;-9.384;2022-12-05T11:53:30;98283.72;;;14.03;100.00
60918;BME280;46792;38.854;-9.384;2022-12-05T11:55:37;98287.88;;;14.01;100.00
60918;BME280;46792;38.854;-9.384;2022-12-05T12:07:43;98273.81;;;13.90;100.00
60918;BME280;46792;38.854;-9.384;2022-12-05T12:19:00;98260.56;;;13.97;100.00
60918;BME280;46792;38.854;-9.384;2022-12-05T12:30:14;98265.38;;;14.00;100.00
60918;BME280;46792;38.854;-9.384;2022-12-05T12:34:53;98271.59;;;14.01;100.00
60918;BME280;46792;38.854;-9.384;2022-12-05T12:39:48;98266.81;;;14.15;100.00
60918;BME280;46792;38.854;-9.384;2022-12-05T12:46:49;98250.53;;;14.24;100.00
60918;BME280;46792;38.854;-9.384;2022-12-05T12:51:00;98258.19;;;14.39;100.00
60918;BME280;46792;38.854;-9.384;2022-12-05T13:02:45;98257.84;;;14.58;100.00
60918;BME280;46792;38.854;-9.384;2022-12-05T13:04:56;98272.06;;;14.55;100.00
60918;BME280;46792;38.854;-9.384;2022-12-05T13:07:14;98272.22;;;14.59;100.00
60918;BME280;46792;38.854;-9.384;2022-12-05T13:09:33;98277.19;;;14.57;100.00
60918;BME280;46792;38.854;-9.384;2022-12-05T13:11:38;98274.59;;;14.60;100.00
60918;BME280;46792;38.854;-9.384;2022-12-05T13:13:50;98274.13;;;14.58;100.00
60918;BME280;46792;38.854;-9.384;2022-12-05T13:15:57;98272.06;;;14.55;100.00
60918;BME280;46792;38.854;-9.384;2022-12-05T13:18:01;98279.91;;;14.57;100.00
60918;BME280;46792;38.854;-9.384;2022-12-05T13:20:03;98274.59;;;14.60;100.00
60918;BME280;46792;38.854;-9.384;2022-12-05T13:22:05;98269.97;;;14.61;100.00
60918;BME280;46792;38.854;-9.384;2022-12-05T13:24:10;98274.75;;;14.64;100.00
60918;BME280;46792;38.854;-9.384;2022-12-05T13:26:12;98270.91;;;14.65;100.00
60918;BME280;46792;38.854;-9.384;2022-12-05T13:28:36;98279.72;;;14.71;100.00
60918;BME280;46792;38.854;-9.384;2022-12-05T13:30:48;98265.97;;;14.76;100.00
60918;BME280;46792;38.854;-9.384;2022-12-05T13:33:06;98264.03;;;14.85;100.00
60918;BME280;46792;38.854;-9.384;2022-12-05T13:35:19;98265.81;;;14.81;100.00
60918;BME280;46792;38.854;-9.384;2022-12-05T13:37:47;98259.09;;;14.79;100.00
60918;BME280;46792;38.854;-9.384;2022-12-05T13:42:37;98275.88;;;14.72;100.00
60918;BME280;46792;38.854;-9.384;2022-12-05T13:46:48;98272.69;;;14.70;100.00
60918;BME280;46792;38.854;-9.384;2022-12-05T13:48:59;98269.53;;;14.68;100.00
60918;BME280;46792;38.854;-9.384;2022-12-05T13:51:07;98268.06;;;14.70;100.00
60918;BME280;46792;38.854;-9.384;2022-12-05T13:55:31;98270.91;;;14.65;100.00
60918;BME280;46792;38.854;-9.384;2022-12-05T14:07:38;98274.13;;;14.85;100.00
60918;BME280;46792;38.854;-9.384;2022-12-05T14:09:53;98262.44;;;14.84;100.00
60918;BME280;46792;38.854;-9.384;2022-12-05T14:16:54;98270.25;;;14.95;100.00
60918;BME280;46792;38.854;-9.384;2022-12-05T14:21:10;98269.28;;;14.99;100.00
60918;BME280;46792;38.854;-9.384;2022-12-05T14:32:59;98272.59;;;15.44;100.00
60918;BME280;46792;38.854;-9.384;2022-12-05T14:35:11;98280.06;;;15.56;100.00
60918;BME280;46792;38.854;-9.384;2022-12-05T14:39:49;98272.94;;;15.72;100.00
60918;BME280;46792;38.854;-9.384;2022-12-05T14:41:59;98269.50;;;15.84;100.00
60918;BME280;46792;38.854;-9.384;2022-12-05T14:44:01;98268.34;;;15.94;100.00
60918;BME280;46792;38.854;-9.384;2022-12-05T14:46:05;98271.94;;;16.07;100.00
60918;BME280;46792;38.854;-9.384;2022-12-05T14:52:38;98276.00;;;16.01;100.00
60918;BME280;46792;38.854;-9.384;2022-12-05T14:54:40;98278.56;;;15.97;100.00
60918;BME280;46792;38.854;-9.384;2022-12-05T14:56:45;98285.81;;;15.93;100.00
60918;BME280;46792;38.854;-9.384;2022-12-05T15:01:12;98286.63;;;15.85;100.00
60918;BME280;46792;38.854;-9.384;2022-12-05T15:03:22;98299.94;;;15.86;100.00
60918;BME280;46792;38.854;-9.384;2022-12-05T15:05:31;98297.25;;;15.77;100.00
60918;BME280;46792;38.854;-9.384;2022-12-05T15:07:36;98290.72;;;15.70;100.00
60918;BME280;46792;38.854;-9.384;2022-12-05T15:09:56;98288.97;;;15.65;100.00
60918;BME280;46792;38.854;-9.384;2022-12-05T15:12:00;98291.09;;;15.59;100.00
60918;BME280;46792;38.854;-9.384;2022-12-05T15:14:21;98300.53;;;15.62;100.00
60918;BME280;46792;38.854;-9.384;2022-12-05T15:16:23;98298.78;;;15.57;100.00
60918;BME280;46792;38.854;-9.384;2022-12-05T15:18:50;98302.63;;;15.56;100.00
60918;BME280;46792;38.854;-9.384;2022-12-05T15:23:40;98303.28;;;15.53;100.00
60918;BME280;46792;38.854;-9.384;2022-12-05T15:25:41;98303.94;;;15.50;100.00
60918;BME280;46792;38.854;-9.384;2022-12-05T15:27:51;98318.66;;;15.49;100.00
60918;BME280;46792;38.854;-9.384;2022-12-05T15:29:53;98305.72;;;15.46;100.00
60918;BME280;46792;38.854;-9.384;2022-12-05T15:32:18;98311.00;;;15.42;100.00
60918;BME280;46792;38.854;-9.384;2022-12-05T15:34:47;98314.03;;;15.41;100.00
60918;BME280;46792;38.854;-9.384;2022-12-05T15:37:17;98313.59;;;15.39;100.00
60918;BME280;46792;38.854;-9.384;2022-12-05T15:39:22;98321.28;;;15.36;100.00
60918;BME280;46792;38.854;-9.384;2022-12-05T15:41:26;98331.19;;;15.32;100.00
60918;BME280;46792;38.854;-9.384;2022-12-05T15:43:32;98334.25;;;15.31;100.00
60918;BME280;46792;38.854;-9.384;2022-12-05T15:45:33;98333.94;;;15.32;100.00
60918;BME280;46792;38.854;-9.384;2022-12-05T15:47:33;98336.97;;;15.31;100.00
60918;BME280;46792;38.854;-9.384;2022-12-05T15:49:34;98343.19;;;15.31;100.00
60918;BME280;46792;38.854;-9.384;2022-12-05T15:51:36;98342.41;;;15.31;100.00
60918;BME280;46792;38.854;-9.384;2022-12-05T15:54:03;98346.91;;;15.27;100.00
60918;BME280;46792;38.854;-9.384;2022-12-05T15:56:06;98354.25;;;15.26;100.00
60918;BME280;46792;38.854;-9.384;2022-12-05T15:58:26;98350.75;;;15.26;100.00
60918;BME280;46792;38.854;-9.384;2022-12-05T16:00:29;98360.63;;;15.30;100.00